Winton Post Office, Australia
Current Conditions -  °F | °C
As of 11:00 AM on Saturday 20 Dec 2014 (Local Time) from YLRE Reporting Station
Clear Clear  
Wind Chill: 97°   Ceiling: Unl
Heat Index: 97°   Visibility: 6mi
Dew Point: 48°   Wind: 13mph
Humidity: 19%   Direction: 40°NE
Pressure: 29.88"   Gusts: NA
Location:  22.38°S, 143.03°E
Report Text: YLRE 200100Z 04011KT CAVOK 36/09 Q1012
Loading
Personal Weather Stations






























Interactive Weather Map New forecast layout! Learn more

10-Day Weather Forecast

Advertisements
Track Severe Weather on mobile